Time;durP1;ratioP1;P1;durP2;ratioP2;P2;SDS_P1;SDS_P2;PMS_P1;PMS_P2;Temp;Humidity;BMP_temperature;BMP_pressure;BME280_temperature;BME280_humidity;BME280_pressure;Samples;Min_cycle;Max_cycle;Signal;HPM_P1;HPM_P2
2023/09/04 00:00:56;;;;;;;13.25;11.85;;;;;;;;;;5092891;28;20031;-71
2023/09/04 00:03:21;;;;;;;15.82;11.95;;;;;;;;;;5093906;28;20039;-71
2023/09/04 00:05:46;;;;;;;12.98;11.68;;;;;;;;;;5090384;28;20016;-70
2023/09/04 00:08:12;;;;;;;13.82;11.65;;;;;;;;;;5094025;28;20036;-70
2023/09/04 00:10:37;;;;;;;14.52;12.13;;;;;;;;;;5075917;28;20090;-70
2023/09/04 00:13:02;;;;;;;14.48;11.75;;;;;;;;;;5079757;28;20109;-71
2023/09/04 00:15:27;;;;;;;13.00;11.63;;;;;;;;;;5092736;28;20024;-72
2023/09/04 00:17:53;;;;;;;13.07;10.80;;;;;;;;;;5075053;28;20055;-72
2023/09/04 00:20:21;;;;;;;10.97;9.43;;;;;;;;;;5072882;28;20413;-69
2023/09/04 00:22:46;;;;;;;12.55;10.43;;;;;;;;;;5086976;28;20625;-70
2023/09/04 00:25:11;;;;;;;11.00;9.83;;;;;;;;;;5074276;28;20078;-70
2023/09/04 00:27:36;;;;;;;12.57;10.32;;;;;;;;;;5085174;28;20795;-69
2023/09/04 00:30:02;;;;;;;12.98;8.73;;;;;;;;;;5090528;28;20027;-69
2023/09/04 00:32:28;;;;;;;11.50;9.73;;;;;;;;;;5084637;28;20501;-69
2023/09/04 00:34:53;;;;;;;14.02;10.32;;;;;;;;;;5073803;28;20111;-69
2023/09/04 00:37:18;;;;;;;10.83;9.70;;;;;;;;;;5081911;28;20029;-69
2023/09/04 00:39:43;;;;;;;11.23;9.77;;;;;;;;;;5072865;28;20350;-69
2023/09/04 00:42:10;;;;;;;10.27;9.17;;;;;;;;;;5083987;28;20305;-69
2023/09/04 00:44:35;;;;;;;9.55;8.40;;;;;;;;;;5075552;28;20278;-69
2023/09/04 00:47:00;;;;;;;11.88;8.00;;;;;;;;;;5083923;28;20028;-69
2023/09/04 00:49:26;;;;;;;11.68;8.32;;;;;;;;;;5075111;28;20035;-70
2023/09/04 00:51:52;;;;;;;9.50;8.50;;;;;;;;;;5081705;28;20024;-70
2023/09/04 00:54:18;;;;;;;11.30;8.30;;;;;;;;;;5088488;28;20102;-70
2023/09/04 00:56:44;;;;;;;10.38;8.75;;;;;;;;;;5076250;28;20024;-70
2023/09/04 00:59:09;;;;;;;11.27;10.02;;;;;;;;;;5072950;28;20414;-69
2023/09/04 01:01:35;;;;;;;13.48;8.93;;;;;;;;;;5054638;28;20045;-70
2023/09/04 01:04:00;;;;;;;10.43;8.73;;;;;;;;;;5072899;28;20020;-70
2023/09/04 01:06:26;;;;;;;10.93;8.77;;;;;;;;;;5083235;28;20027;-69
2023/09/04 01:08:51;;;;;;;10.20;9.03;;;;;;;;;;5092096;28;20281;-70
2023/09/04 01:11:31;;;;;;;11.40;9.45;;;;;;;;;;5074784;28;20263;-69
2023/09/04 01:13:56;;;;;;;11.77;8.85;;;;;;;;;;5072368;28;20394;-69
2023/09/04 01:16:23;;;;;;;11.02;9.23;;;;;;;;;;5072498;28;20032;-69
2023/09/04 01:18:48;;;;;;;9.27;7.90;;;;;;;;;;5080632;28;20053;-69
2023/09/04 01:21:14;;;;;;;12.13;7.80;;;;;;;;;;5079465;28;20024;-69
2023/09/04 01:23:39;;;;;;;10.20;8.55;;;;;;;;;;5079795;28;20020;-69
2023/09/04 01:26:20;;;;;;;13.73;9.77;;;;;;;;;;5074396;28;20025;-69
2023/09/04 01:29:04;;;;;;;12.10;9.60;;;;;;;;;;5075966;28;21231;-69
2023/09/04 01:31:32;;;;;;;11.20;9.32;;;;;;;;;;5073416;28;20376;-70
2023/09/04 01:34:08;;;;;;;12.00;8.68;;;;;;;;;;5073379;28;20024;-70
2023/09/04 01:36:35;;;;;;;10.25;8.02;;;;;;;;;;5074973;28;20024;-71
2023/09/04 01:39:00;;;;;;;12.93;8.93;;;;;;;;;;5072207;28;20016;-71
2023/09/04 01:41:26;;;;;;;15.50;11.60;;;;;;;;;;5072238;28;20039;-70
2023/09/04 01:43:51;;;;;;;11.65;10.45;;;;;;;;;;5072260;28;20470;-70
2023/09/04 01:46:16;;;;;;;13.32;9.98;;;;;;;;;;5073193;28;20101;-71
2023/09/04 01:48:41;;;;;;;11.05;9.43;;;;;;;;;;5090327;28;20024;-70
2023/09/04 01:51:07;;;;;;;13.68;10.18;;;;;;;;;;5086959;28;20483;-70
2023/09/04 01:53:32;;;;;;;11.15;8.57;;;;;;;;;;5078913;28;20031;-71
2023/09/04 01:55:58;;;;;;;11.95;9.75;;;;;;;;;;5086109;28;20109;-70
2023/09/04 01:58:24;;;;;;;11.52;10.10;;;;;;;;;;5084256;28;20506;-70
2023/09/04 02:00:49;;;;;;;13.65;10.48;;;;;;;;;;5091376;28;20032;-69
2023/09/04 02:03:15;;;;;;;15.65;11.35;;;;;;;;;;5091593;28;20077;-71
2023/09/04 02:05:40;;;;;;;11.02;9.43;;;;;;;;;;5074320;28;20038;-71
2023/09/04 02:08:07;;;;;;;10.68;9.25;;;;;;;;;;5072499;28;20078;-70
2023/09/04 02:10:35;;;;;;;14.30;10.63;;;;;;;;;;5071030;28;20104;-71
2023/09/04 02:13:01;;;;;;;14.02;10.82;;;;;;;;;;5090001;28;20039;-69
2023/09/04 02:15:26;;;;;;;15.55;11.98;;;;;;;;;;5091348;28;20382;-70
2023/09/04 02:17:52;;;;;;;13.87;11.63;;;;;;;;;;5090216;28;20066;-70
2023/09/04 02:20:17;;;;;;;15.13;11.65;;;;;;;;;;5079027;28;20290;-70
2023/09/04 02:22:43;;;;;;;11.20;8.40;;;;;;;;;;5071094;28;20024;-70
2023/09/04 02:25:09;;;;;;;12.77;8.75;;;;;;;;;;5072273;28;20548;-70
2023/09/04 02:27:34;;;;;;;11.85;10.05;;;;;;;;;;5073174;28;20099;-70
2023/09/04 02:30:02;;;;;;;15.33;9.17;;;;;;;;;;5083568;28;20032;-69
2023/09/04 02:32:28;;;;;;;11.23;9.77;;;;;;;;;;5083295;28;20270;-70
2023/09/04 02:34:53;;;;;;;13.85;10.63;;;;;;;;;;5071797;28;20142;-69
2023/09/04 02:37:18;;;;;;;15.40;12.18;;;;;;;;;;5088076;28;20101;-69
2023/09/04 02:39:43;;;;;;;18.80;14.27;;;;;;;;;;5087442;28;20024;-69
2023/09/04 02:42:09;;;;;;;16.87;13.70;;;;;;;;;;5082915;28;20377;-70
2023/09/04 02:44:34;;;;;;;21.40;15.55;;;;;;;;;;5091930;28;20274;-70
2023/09/04 02:47:00;;;;;;;21.03;15.90;;;;;;;;;;5079601;28;20390;-70
2023/09/04 02:49:25;;;;;;;19.27;13.97;;;;;;;;;;5093029;28;20332;-70
2023/09/04 02:51:50;;;;;;;14.68;12.23;;;;;;;;;;5092856;28;20339;-70
2023/09/04 02:54:15;;;;;;;14.70;12.70;;;;;;;;;;5092896;28;20032;-70
2023/09/04 02:56:40;;;;;;;13.30;11.13;;;;;;;;;;5083205;28;20060;-70
2023/09/04 02:59:06;;;;;;;13.70;10.87;;;;;;;;;;5074347;28;20760;-70
2023/09/04 03:01:33;;;;;;;12.40;11.10;;;;;;;;;;5075458;28;20687;-70
2023/09/04 03:03:58;;;;;;;9.77;8.60;;;;;;;;;;5086345;28;20046;-70
2023/09/04 03:06:23;;;;;;;13.35;10.75;;;;;;;;;;5090069;28;20534;-70
2023/09/04 03:08:48;;;;;;;15.75;11.80;;;;;;;;;;5077103;28;20079;-70
2023/09/04 03:11:14;;;;;;;21.57;15.27;;;;;;;;;;5074623;28;20061;-70
2023/09/04 03:13:39;;;;;;;18.60;15.05;;;;;;;;;;5085749;28;20377;-70
2023/09/04 03:16:07;;;;;;;17.77;14.73;;;;;;;;;;5076785;28;20115;-70
2023/09/04 03:18:33;;;;;;;14.50;12.60;;;;;;;;;;5074777;28;20043;-70
2023/09/04 03:20:59;;;;;;;18.25;15.05;;;;;;;;;;5074225;28;20017;-70
2023/09/04 03:23:24;;;;;;;20.15;18.02;;;;;;;;;;5074381;28;20050;-70
2023/09/04 03:25:49;;;;;;;23.17;18.80;;;;;;;;;;5074101;28;20104;-71
2023/09/04 03:28:14;;;;;;;28.25;21.42;;;;;;;;;;5085873;28;20305;-71
2023/09/04 03:30:40;;;;;;;27.42;21.45;;;;;;;;;;5079930;28;20117;-71
2023/09/04 03:33:05;;;;;;;30.85;22.77;;;;;;;;;;5093802;28;20032;-70
2023/09/04 03:35:30;;;;;;;33.20;24.67;;;;;;;;;;5092443;28;20072;-70
2023/09/04 03:37:55;;;;;;;37.55;24.90;;;;;;;;;;5093624;28;20024;-70
2023/09/04 03:40:22;;;;;;;34.92;23.85;;;;;;;;;;5092546;28;20051;-70
2023/09/04 03:42:47;;;;;;;30.17;23.33;;;;;;;;;;5092776;28;20073;-70
2023/09/04 03:45:12;;;;;;;31.80;22.60;;;;;;;;;;5091635;28;20035;-70
2023/09/04 03:47:38;;;;;;;32.05;24.67;;;;;;;;;;5089116;28;20086;-70
2023/09/04 03:50:04;;;;;;;32.35;25.38;;;;;;;;;;5080896;28;20020;-71
2023/09/04 03:52:29;;;;;;;29.05;25.42;;;;;;;;;;5081581;28;20024;-70
2023/09/04 03:54:54;;;;;;;29.83;23.23;;;;;;;;;;5081986;28;20528;-70
2023/09/04 03:57:20;;;;;;;28.60;23.77;;;;;;;;;;5080108;28;20463;-70
2023/09/04 03:59:45;;;;;;;30.65;24.42;;;;;;;;;;5093647;28;20667;-71
2023/09/04 04:02:11;;;;;;;30.40;23.05;;;;;;;;;;5091872;28;20111;-71
2023/09/04 04:04:36;;;;;;;26.95;21.98;;;;;;;;;;5092094;28;20024;-70
2023/09/04 04:07:03;;;;;;;28.97;23.97;;;;;;;;;;5090721;28;20024;-69
2023/09/04 04:09:28;;;;;;;31.17;23.08;;;;;;;;;;5089626;28;20274;-69
2023/09/04 04:11:54;;;;;;;29.13;23.25;;;;;;;;;;5091500;28;20395;-69
2023/09/04 04:14:20;;;;;;;26.42;22.33;;;;;;;;;;5077997;28;20029;-69
2023/09/04 04:16:45;;;;;;;26.75;22.80;;;;;;;;;;5087779;28;20026;-69
2023/09/04 04:19:12;;;;;;;28.20;22.02;;;;;;;;;;5085010;28;20023;-69
2023/09/04 04:21:38;;;;;;;28.05;21.63;;;;;;;;;;5091598;28;20024;-69
2023/09/04 04:24:03;;;;;;;24.10;21.42;;;;;;;;;;5091212;28;20031;-69
2023/09/04 04:26:28;;;;;;;30.40;21.90;;;;;;;;;;5085946;28;20024;-69
2023/09/04 04:28:54;;;;;;;24.38;21.13;;;;;;;;;;5085939;28;20344;-69
2023/09/04 04:31:20;;;;;;;26.30;22.30;;;;;;;;;;5091011;28;20013;-69
2023/09/04 04:33:45;;;;;;;26.77;22.08;;;;;;;;;;5084848;28;20369;-68
2023/09/04 04:36:10;;;;;;;27.37;21.73;;;;;;;;;;5082634;28;20028;-69
2023/09/04 04:38:35;;;;;;;28.95;23.83;;;;;;;;;;5081124;28;20336;-69
2023/09/04 04:41:01;;;;;;;27.35;22.73;;;;;;;;;;5079276;28;20471;-70
2023/09/04 04:43:26;;;;;;;26.05;21.10;;;;;;;;;;5082710;28;20455;-70
2023/09/04 04:45:52;;;;;;;26.77;21.58;;;;;;;;;;5086252;28;20031;-70
2023/09/04 04:48:19;;;;;;;25.30;21.08;;;;;;;;;;5086353;28;20032;-69
2023/09/04 04:50:44;;;;;;;28.25;22.77;;;;;;;;;;5086940;28;20466;-69
2023/09/04 04:53:09;;;;;;;27.08;21.90;;;;;;;;;;5086795;28;20046;-70
2023/09/04 04:55:34;;;;;;;29.13;23.30;;;;;;;;;;5081415;28;20055;-70
2023/09/04 04:58:00;;;;;;;28.63;22.83;;;;;;;;;;5083479;28;20270;-70
2023/09/04 05:00:25;;;;;;;27.80;22.57;;;;;;;;;;5088804;28;20346;-71
2023/09/04 05:02:50;;;;;;;28.60;22.77;;;;;;;;;;5079701;28;20277;-70
2023/09/04 05:05:16;;;;;;;27.02;21.50;;;;;;;;;;5091575;28;20345;-70
2023/09/04 05:07:41;;;;;;;27.55;20.92;;;;;;;;;;5092397;28;20085;-70
2023/09/04 05:10:07;;;;;;;25.23;20.33;;;;;;;;;;5083716;28;20356;-70
2023/09/04 05:12:32;;;;;;;25.98;20.33;;;;;;;;;;5085880;28;20023;-70
2023/09/04 05:14:57;;;;;;;25.97;22.20;;;;;;;;;;5072884;28;20020;-70
2023/09/04 05:17:22;;;;;;;26.60;21.30;;;;;;;;;;5072963;28;20316;-70
2023/09/04 05:19:48;;;;;;;26.60;21.25;;;;;;;;;;5087565;28;20301;-70
2023/09/04 05:22:13;;;;;;;30.67;22.50;;;;;;;;;;5087786;28;20038;-71
2023/09/04 05:24:38;;;;;;;26.70;20.48;;;;;;;;;;5086446;28;20338;-70
2023/09/04 05:27:03;;;;;;;26.53;20.67;;;;;;;;;;5079118;28;20031;-69
2023/09/04 05:29:29;;;;;;;24.75;19.88;;;;;;;;;;5075379;28;20826;-70
2023/09/04 05:31:56;;;;;;;27.17;20.85;;;;;;;;;;5062874;28;20159;-70
2023/09/04 05:34:21;;;;;;;27.52;20.98;;;;;;;;;;5073949;28;20055;-70
2023/09/04 05:36:46;;;;;;;23.70;20.70;;;;;;;;;;5076469;28;20456;-70
2023/09/04 05:39:12;;;;;;;25.95;22.10;;;;;;;;;;5074002;28;20968;-70
2023/09/04 05:41:37;;;;;;;27.02;21.30;;;;;;;;;;5068995;28;20028;-70
2023/09/04 05:44:03;;;;;;;28.13;21.92;;;;;;;;;;5073815;28;20097;-70
2023/09/04 05:46:29;;;;;;;25.45;19.90;;;;;;;;;;5076041;28;20420;-70
2023/09/04 05:48:54;;;;;;;28.23;22.05;;;;;;;;;;5074073;28;20028;-70
2023/09/04 05:51:19;;;;;;;27.27;21.73;;;;;;;;;;5075725;28;20028;-70
2023/09/04 05:53:45;;;;;;;25.63;20.42;;;;;;;;;;5073061;28;20082;-70
2023/09/04 05:56:11;;;;;;;26.80;22.10;;;;;;;;;;5073508;28;20078;-70
2023/09/04 05:58:47;;;;;;;25.02;21.30;;;;;;;;;;5087102;28;20278;-70
2023/09/04 06:01:13;;;;;;;25.17;20.02;;;;;;;;;;5091553;28;20047;-70
2023/09/04 06:03:41;;;;;;;27.05;21.23;;;;;;;;;;5090912;28;20081;-70
2023/09/04 06:06:07;;;;;;;23.98;18.42;;;;;;;;;;5090155;28;20028;-70
2023/09/04 06:08:32;;;;;;;25.52;21.10;;;;;;;;;;5090289;28;20095;-70
2023/09/04 06:10:58;;;;;;;31.63;20.58;;;;;;;;;;5078079;28;20387;-70
2023/09/04 06:13:23;;;;;;;24.33;19.70;;;;;;;;;;5090976;28;20028;-70
2023/09/04 06:15:51;;;;;;;24.13;20.43;;;;;;;;;;5090911;28;20070;-70
2023/09/04 06:18:17;;;;;;;25.98;19.15;;;;;;;;;;5090150;28;20267;-70
2023/09/04 06:20:42;;;;;;;22.92;19.35;;;;;;;;;;5090547;28;20043;-70
2023/09/04 06:23:07;;;;;;;23.47;19.03;;;;;;;;;;5082033;28;20104;-70
2023/09/04 06:25:38;;;;;;;26.17;18.83;;;;;;;;;;5086078;28;20656;-70
2023/09/04 06:28:03;;;;;;;24.33;18.63;;;;;;;;;;5090909;28;20655;-69
2023/09/04 06:30:28;;;;;;;22.48;17.80;;;;;;;;;;5083014;28;20032;-69
2023/09/04 06:32:54;;;;;;;20.60;17.63;;;;;;;;;;5071561;28;20024;-69
2023/09/04 06:35:19;;;;;;;21.55;17.67;;;;;;;;;;5071214;28;20424;-69
2023/09/04 06:37:44;;;;;;;23.50;18.27;;;;;;;;;;5070752;28;20055;-70
2023/09/04 06:40:10;;;;;;;22.00;17.75;;;;;;;;;;5071473;28;20020;-70
2023/09/04 06:42:35;;;;;;;18.58;16.48;;;;;;;;;;5071355;28;20039;-71
2023/09/04 06:45:00;;;;;;;20.05;16.30;;;;;;;;;;5071863;28;20020;-71
2023/09/04 06:47:25;;;;;;;20.83;16.33;;;;;;;;;;5070225;28;20021;-70
2023/09/04 06:49:51;;;;;;;18.05;15.40;;;;;;;;;;5074186;28;20024;-70
2023/09/04 06:52:16;;;;;;;17.60;15.80;;;;;;;;;;5071785;28;20345;-70
2023/09/04 06:54:41;;;;;;;16.63;13.50;;;;;;;;;;5078719;28;20314;-70
2023/09/04 06:57:06;;;;;;;16.27;14.10;;;;;;;;;;5070979;28;20283;-70
2023/09/04 06:59:32;;;;;;;17.10;14.45;;;;;;;;;;5072090;28;20275;-71
2023/09/04 07:01:57;;;;;;;20.40;15.47;;;;;;;;;;5072759;28;20047;-71
2023/09/04 07:04:22;;;;;;;18.87;14.10;;;;;;;;;;5072113;28;20282;-71
2023/09/04 07:06:47;;;;;;;17.95;13.95;;;;;;;;;;5067426;28;20812;-71
2023/09/04 07:09:13;;;;;;;19.60;14.60;;;;;;;;;;5073338;28;20013;-70
2023/09/04 07:11:38;;;;;;;16.93;14.50;;;;;;;;;;5079856;28;20810;-71
2023/09/04 07:14:03;;;;;;;16.10;13.43;;;;;;;;;;5086160;28;20675;-71
2023/09/04 07:16:31;;;;;;;15.60;13.65;;;;;;;;;;5087163;28;20369;-71
2023/09/04 07:18:56;;;;;;;15.25;13.15;;;;;;;;;;5072986;28;20036;-70
2023/09/04 07:21:22;;;;;;;14.77;13.17;;;;;;;;;;5081195;28;20077;-71
2023/09/04 07:23:47;;;;;;;13.93;11.83;;;;;;;;;;5070602;28;20321;-71
2023/09/04 07:26:12;;;;;;;16.40;13.10;;;;;;;;;;5089006;28;20273;-71
2023/09/04 07:28:38;;;;;;;16.05;13.00;;;;;;;;;;5075080;28;20275;-69
2023/09/04 07:31:12;;;;;;;17.00;11.87;;;;;;;;;;5075502;28;20020;-70
2023/09/04 07:33:37;;;;;;;13.70;12.20;;;;;;;;;;5077084;28;20273;-69
2023/09/04 07:36:02;;;;;;;12.98;11.63;;;;;;;;;;5077320;28;20021;-70
2023/09/04 07:38:28;;;;;;;13.57;11.90;;;;;;;;;;5084936;28;20467;-70
2023/09/04 07:41:00;;;;;;;13.23;10.65;;;;;;;;;;5076841;28;20028;-70
2023/09/04 07:43:25;;;;;;;13.52;10.55;;;;;;;;;;5085755;28;20032;-70
2023/09/04 07:45:52;;;;;;;12.17;10.37;;;;;;;;;;5084210;28;20021;-70
2023/09/04 07:48:18;;;;;;;10.77;9.55;;;;;;;;;;5075487;28;20274;-70
2023/09/04 07:50:43;;;;;;;11.50;9.63;;;;;;;;;;5084029;28;20050;-71
2023/09/04 07:53:08;;;;;;;9.93;8.90;;;;;;;;;;5089223;28;20036;-69
2023/09/04 07:55:33;;;;;;;10.43;9.40;;;;;;;;;;5085314;28;20279;-67
2023/09/04 07:57:59;;;;;;;10.60;8.97;;;;;;;;;;5059913;28;20382;-70
2023/09/04 08:00:24;;;;;;;13.48;9.38;;;;;;;;;;5036579;28;20371;-71
2023/09/04 08:02:50;;;;;;;12.83;9.63;;;;;;;;;;5042013;28;20067;-70
2023/09/04 08:05:15;;;;;;;9.90;8.55;;;;;;;;;;5041495;28;20415;-71
2023/09/04 08:07:40;;;;;;;10.35;8.57;;;;;;;;;;5045275;28;21124;-71
2023/09/04 08:10:06;;;;;;;10.90;8.68;;;;;;;;;;5051246;28;20028;-71
2023/09/04 08:12:31;;;;;;;10.43;8.60;;;;;;;;;;5082803;28;20016;-71
2023/09/04 08:14:57;;;;;;;9.17;7.93;;;;;;;;;;5080963;28;20020;-70
2023/09/04 08:17:23;;;;;;;10.55;7.80;;;;;;;;;;5087796;28;20327;-70
2023/09/04 08:19:49;;;;;;;9.82;6.78;;;;;;;;;;5080005;28;20494;-70
2023/09/04 08:22:14;;;;;;;7.68;6.65;;;;;;;;;;5078372;28;20020;-70
2023/09/04 08:24:39;;;;;;;9.05;6.40;;;;;;;;;;5086239;28;20117;-70
2023/09/04 08:27:05;;;;;;;8.90;5.80;;;;;;;;;;5077838;28;20033;-70
2023/09/04 08:29:30;;;;;;;7.63;6.35;;;;;;;;;;5082505;28;20753;-71
2023/09/04 08:31:55;;;;;;;7.70;6.47;;;;;;;;;;5083042;28;20032;-70
2023/09/04 08:34:20;;;;;;;6.83;6.03;;;;;;;;;;5087752;28;20024;-71
2023/09/04 08:36:46;;;;;;;9.03;5.53;;;;;;;;;;5080146;28;20765;-70
2023/09/04 08:39:12;;;;;;;9.23;4.93;;;;;;;;;;5082133;28;20641;-70
2023/09/04 08:41:37;;;;;;;6.85;5.20;;;;;;;;;;5085169;28;20060;-70
2023/09/04 08:44:03;;;;;;;6.10;4.60;;;;;;;;;;5083992;28;20446;-71
2023/09/04 08:46:29;;;;;;;7.15;5.05;;;;;;;;;;5068667;28;20529;-71
2023/09/04 08:48:56;;;;;;;6.97;4.30;;;;;;;;;;5076498;28;20025;-71
2023/09/04 08:51:21;;;;;;;10.70;5.25;;;;;;;;;;5080949;28;20024;-71
2023/09/04 08:53:49;;;;;;;7.37;4.40;;;;;;;;;;5060846;28;20036;-71
2023/09/04 08:56:15;;;;;;;5.03;4.25;;;;;;;;;;5079243;28;20267;-71
2023/09/04 08:58:42;;;;;;;7.45;4.72;;;;;;;;;;5079933;28;20471;-71
2023/09/04 09:01:09;;;;;;;5.93;4.80;;;;;;;;;;5089863;28;20036;-70
2023/09/04 09:03:35;;;;;;;5.70;4.07;;;;;;;;;;5078827;28;20516;-71
2023/09/04 09:06:00;;;;;;;5.57;4.10;;;;;;;;;;5081147;28;20024;-71
2023/09/04 09:08:26;;;;;;;6.07;4.00;;;;;;;;;;5085524;28;20159;-70
2023/09/04 09:10:52;;;;;;;6.15;4.43;;;;;;;;;;5081687;28;20024;-71
2023/09/04 09:13:18;;;;;;;5.65;4.30;;;;;;;;;;5072071;28;20021;-70
2023/09/04 09:15:43;;;;;;;5.72;4.20;;;;;;;;;;5072677;28;20059;-70
2023/09/04 09:18:08;;;;;;;7.35;4.30;;;;;;;;;;5071932;28;20032;-70
2023/09/04 09:20:39;;;;;;;5.28;4.25;;;;;;;;;;5081521;28;20039;-71
2023/09/04 09:23:05;;;;;;;5.68;4.30;;;;;;;;;;5080839;28;20024;-70
2023/09/04 09:25:30;;;;;;;5.35;4.15;;;;;;;;;;5079985;28;20024;-71
2023/09/04 09:28:02;;;;;;;6.38;4.22;;;;;;;;;;5084162;28;20083;-71
2023/09/04 09:30:35;;;;;;;5.00;3.60;;;;;;;;;;5083201;28;20020;-71
2023/09/04 09:33:02;;;;;;;6.80;3.85;;;;;;;;;;5085840;28;20020;-71
2023/09/04 09:35:30;;;;;;;5.55;4.20;;;;;;;;;;5080459;28;20031;-70
2023/09/04 09:37:55;;;;;;;6.32;4.18;;;;;;;;;;5087173;28;20418;-71
2023/09/04 09:40:21;;;;;;;5.10;4.07;;;;;;;;;;5079540;28;20017;-71
2023/09/04 09:42:46;;;;;;;7.05;3.95;;;;;;;;;;5077527;28;20387;-71
2023/09/04 09:45:12;;;;;;;8.37;4.00;;;;;;;;;;5074005;28;20036;-71
2023/09/04 09:47:37;;;;;;;5.40;4.00;;;;;;;;;;5076752;28;20274;-71
2023/09/04 09:50:03;;;;;;;6.55;3.60;;;;;;;;;;5081894;28;20024;-71
2023/09/04 09:52:29;;;;;;;5.00;3.55;;;;;;;;;;5071019;28;20122;-70
2023/09/04 09:54:54;;;;;;;5.90;3.67;;;;;;;;;;5074125;28;20095;-70
2023/09/04 09:57:20;;;;;;;7.20;3.93;;;;;;;;;;5076337;28;20274;-71
2023/09/04 09:59:49;;;;;;;5.30;3.78;;;;;;;;;;5083648;28;20274;-71
2023/09/04 10:02:19;;;;;;;5.07;3.65;;;;;;;;;;5079753;28;20056;-71
2023/09/04 10:04:44;;;;;;;5.13;3.10;;;;;;;;;;5073740;28;20032;-71
2023/09/04 10:07:12;;;;;;;5.55;3.75;;;;;;;;;;5071305;28;20065;-71
2023/09/04 10:09:40;;;;;;;4.57;3.13;;;;;;;;;;5075906;28;20024;-71
2023/09/04 10:12:15;;;;;;;4.13;3.00;;;;;;;;;;5076299;28;20109;-71
2023/09/04 10:14:41;;;;;;;4.60;3.53;;;;;;;;;;5071703;28;20036;-71
2023/09/04 10:17:11;;;;;;;3.95;3.17;;;;;;;;;;5071227;28;20093;-71
2023/09/04 10:19:39;;;;;;;4.78;3.30;;;;;;;;;;5074480;28;20051;-70
2023/09/04 10:22:10;;;;;;;7.45;3.20;;;;;;;;;;5078096;28;20054;-71
2023/09/04 10:24:40;;;;;;;6.50;3.55;;;;;;;;;;5072511;28;20502;-71
2023/09/04 10:27:09;;;;;;;5.07;3.17;;;;;;;;;;5076999;28;20425;-70
2023/09/04 10:29:38;;;;;;;4.95;3.30;;;;;;;;;;5079358;28;20021;-70
2023/09/04 10:32:03;;;;;;;4.75;3.42;;;;;;;;;;5085831;28;20028;-70
2023/09/04 10:34:30;;;;;;;4.55;2.72;;;;;;;;;;5073684;28;20107;-71
2023/09/04 10:36:55;;;;;;;4.18;2.90;;;;;;;;;;5077148;28;20047;-71
2023/09/04 10:39:21;;;;;;;4.97;3.43;;;;;;;;;;5083934;28;20471;-69
2023/09/04 10:41:46;;;;;;;4.85;2.95;;;;;;;;;;5083220;28;20294;-70
2023/09/04 10:44:31;;;;;;;5.70;3.00;;;;;;;;;;5073229;28;20093;-70
2023/09/04 10:46:57;;;;;;;4.65;3.33;;;;;;;;;;5075946;28;20059;-70
2023/09/04 10:49:31;;;;;;;5.45;3.15;;;;;;;;;;5080130;28;20377;-71
2023/09/04 10:51:57;;;;;;;4.68;2.95;;;;;;;;;;5067008;28;20020;-71
2023/09/04 10:54:26;;;;;;;4.80;2.92;;;;;;;;;;5074359;28;20047;-70
2023/09/04 10:56:55;;;;;;;5.55;3.10;;;;;;;;;;5071127;28;20027;-71
2023/09/04 10:59:20;;;;;;;4.68;3.05;;;;;;;;;;5073360;28;20025;-71
2023/09/04 11:01:45;;;;;;;4.30;3.08;;;;;;;;;;5082676;28;20040;-69
2023/09/04 11:04:25;;;;;;;5.35;3.63;;;;;;;;;;5085943;28;20390;-70
2023/09/04 11:07:10;;;;;;;5.05;3.22;;;;;;;;;;5081859;28;20020;-70
2023/09/04 11:09:35;;;;;;;5.47;3.75;;;;;;;;;;5087126;28;20056;-70
2023/09/04 11:12:01;;;;;;;6.20;3.30;;;;;;;;;;5075026;28;20052;-71
2023/09/04 11:14:32;;;;;;;4.18;2.78;;;;;;;;;;5092061;28;20274;-71
2023/09/04 11:17:02;;;;;;;3.95;3.10;;;;;;;;;;5081338;28;20463;-71
2023/09/04 11:19:28;;;;;;;5.10;2.83;;;;;;;;;;5081995;28;20051;-71
2023/09/04 11:21:53;;;;;;;3.22;2.45;;;;;;;;;;5090702;28;20036;-70
2023/09/04 11:24:22;;;;;;;4.80;2.70;;;;;;;;;;5086892;28;20386;-70
2023/09/04 11:26:47;;;;;;;4.13;2.80;;;;;;;;;;5068528;28;20028;-71
2023/09/04 11:29:13;;;;;;;3.57;2.27;;;;;;;;;;5081513;28;20021;-70
2023/09/04 11:31:38;;;;;;;3.78;2.25;;;;;;;;;;5081904;28;20339;-70
2023/09/04 11:34:04;;;;;;;4.28;2.47;;;;;;;;;;5087346;28;20031;-70
2023/09/04 11:36:29;;;;;;;4.45;2.10;;;;;;;;;;5080498;28;20028;-71
2023/09/04 11:39:05;;;;;;;5.57;2.40;;;;;;;;;;5078030;28;20436;-71
2023/09/04 11:41:30;;;;;;;6.25;2.60;;;;;;;;;;5079844;28;20375;-70
2023/09/04 11:43:55;;;;;;;7.13;2.58;;;;;;;;;;5084678;28;20032;-71
2023/09/04 11:46:21;;;;;;;3.30;1.98;;;;;;;;;;5074124;28;20020;-70
2023/09/04 11:48:46;;;;;;;5.53;2.30;;;;;;;;;;5081290;28;20031;-71
2023/09/04 11:51:11;;;;;;;3.63;2.20;;;;;;;;;;5078834;28;20799;-71
2023/09/04 11:53:37;;;;;;;4.97;2.38;;;;;;;;;;5081457;28;20020;-71
2023/09/04 11:56:03;;;;;;;3.30;2.00;;;;;;;;;;5074689;28;20021;-71
2023/09/04 11:58:28;;;;;;;4.13;1.80;;;;;;;;;;5077240;28;20032;-71
2023/09/04 12:00:53;;;;;;;4.03;2.40;;;;;;;;;;5085196;28;20063;-71
2023/09/04 12:03:19;;;;;;;2.83;1.70;;;;;;;;;;5086203;28;20032;-71
2023/09/04 12:05:44;;;;;;;2.77;1.70;;;;;;;;;;5075255;28;20378;-70
2023/09/04 12:08:09;;;;;;;6.25;2.17;;;;;;;;;;5079875;28;20328;-71
2023/09/04 12:10:35;;;;;;;3.55;1.83;;;;;;;;;;5085796;28;20027;-70
2023/09/04 12:13:04;;;;;;;3.05;1.83;;;;;;;;;;5074340;28;20066;-71
2023/09/04 12:15:30;;;;;;;3.67;2.10;;;;;;;;;;5073697;28;20023;-71
2023/09/04 12:17:57;;;;;;;3.63;2.00;;;;;;;;;;5074147;28;20074;-71
2023/09/04 12:20:22;;;;;;;2.78;1.73;;;;;;;;;;5075667;28;20024;-71
2023/09/04 12:22:57;;;;;;;3.13;1.70;;;;;;;;;;5073269;28;20116;-71
2023/09/04 12:25:26;;;;;;;3.20;1.98;;;;;;;;;;5078166;28;20016;-71
2023/09/04 12:27:52;;;;;;;5.57;2.00;;;;;;;;;;5084654;28;20526;-71
2023/09/04 12:30:17;;;;;;;3.42;1.70;;;;;;;;;;5077961;28;20064;-71
2023/09/04 12:32:42;;;;;;;3.42;2.20;;;;;;;;;;5080774;28;20032;-71
2023/09/04 12:35:08;;;;;;;3.33;1.90;;;;;;;;;;5081008;28;20031;-71
2023/09/04 12:37:34;;;;;;;3.85;2.17;;;;;;;;;;5080899;28;20345;-71
2023/09/04 12:39:59;;;;;;;3.10;2.05;;;;;;;;;;5081570;28;20025;-71
2023/09/04 12:42:24;;;;;;;3.90;2.07;;;;;;;;;;5083805;28;20016;-71
2023/09/04 12:44:51;;;;;;;4.13;2.03;;;;;;;;;;5087254;28;20831;-71
2023/09/04 12:47:16;;;;;;;3.45;2.00;;;;;;;;;;5082311;28;20055;-72
2023/09/04 12:49:41;;;;;;;3.85;1.95;;;;;;;;;;5080722;28;20078;-72
2023/09/04 12:52:06;;;;;;;3.70;1.90;;;;;;;;;;5076270;28;20371;-72
2023/09/04 12:54:32;;;;;;;3.57;1.97;;;;;;;;;;5086493;28;20064;-72
2023/09/04 12:56:57;;;;;;;3.13;2.05;;;;;;;;;;5072137;28;20051;-71
2023/09/04 12:59:22;;;;;;;4.47;2.27;;;;;;;;;;5079265;28;20069;-71
2023/09/04 13:01:48;;;;;;;3.23;1.90;;;;;;;;;;5081148;28;20039;-71
2023/09/04 13:04:13;;;;;;;3.37;2.03;;;;;;;;;;5072413;28;20171;-71
2023/09/04 13:06:38;;;;;;;3.50;2.03;;;;;;;;;;5076819;28;20285;-71
2023/09/04 13:09:03;;;;;;;4.13;2.03;;;;;;;;;;5072101;28;20074;-71
2023/09/04 13:11:29;;;;;;;3.83;1.98;;;;;;;;;;5073754;28;20475;-71
2023/09/04 13:13:54;;;;;;;3.20;1.93;;;;;;;;;;5079367;28;20020;-71
2023/09/04 13:16:21;;;;;;;4.47;2.40;;;;;;;;;;5076821;28;20267;-70
2023/09/04 13:18:47;;;;;;;4.75;2.22;;;;;;;;;;5083059;28;20276;-70
2023/09/04 13:21:12;;;;;;;3.63;2.07;;;;;;;;;;5077830;28;20477;-71
2023/09/04 13:23:38;;;;;;;3.42;2.08;;;;;;;;;;5077459;28;20343;-71
2023/09/04 13:26:03;;;;;;;3.80;2.20;;;;;;;;;;5074300;28;20054;-71
2023/09/04 13:28:28;;;;;;;3.28;1.90;;;;;;;;;;5076278;28;20028;-71
2023/09/04 13:30:54;;;;;;;5.63;2.43;;;;;;;;;;5076154;28;20021;-71
2023/09/04 13:33:19;;;;;;;3.17;1.80;;;;;;;;;;5078800;28;20032;-72
2023/09/04 13:35:44;;;;;;;4.47;2.60;;;;;;;;;;5072468;28;20834;-71
2023/09/04 13:38:09;;;;;;;3.57;2.00;;;;;;;;;;5080197;28;20035;-71
2023/09/04 13:40:36;;;;;;;3.13;1.97;;;;;;;;;;5076212;28;20025;-70
2023/09/04 13:43:01;;;;;;;3.75;2.10;;;;;;;;;;5074258;28;20286;-71
2023/09/04 13:45:27;;;;;;;3.92;2.10;;;;;;;;;;5074547;28;20024;-71
2023/09/04 13:47:52;;;;;;;2.80;1.90;;;;;;;;;;5073920;28;20036;-71
2023/09/04 13:50:17;;;;;;;3.83;2.33;;;;;;;;;;5072070;28;20038;-71
2023/09/04 13:52:42;;;;;;;5.35;2.08;;;;;;;;;;5080689;28;20266;-72
2023/09/04 13:55:08;;;;;;;3.30;2.30;;;;;;;;;;5083451;28;20514;-71
2023/09/04 13:57:33;;;;;;;4.05;2.50;;;;;;;;;;5076906;28;20277;-71
2023/09/04 13:59:59;;;;;;;3.72;2.13;;;;;;;;;;5076051;28;20024;-73
2023/09/04 14:02:24;;;;;;;4.23;2.23;;;;;;;;;;5082933;28;20442;-69
2023/09/04 14:04:49;;;;;;;3.25;2.00;;;;;;;;;;5082183;28;20278;-71
2023/09/04 14:07:14;;;;;;;3.78;2.58;;;;;;;;;;5072244;28;20059;-71
2023/09/04 14:09:40;;;;;;;3.63;2.03;;;;;;;;;;5074749;28;20044;-70
2023/09/04 14:12:05;;;;;;;5.00;2.10;;;;;;;;;;5079435;28;20432;-71
2023/09/04 14:14:31;;;;;;;3.80;2.22;;;;;;;;;;5070818;28;20024;-71
2023/09/04 14:16:56;;;;;;;5.30;2.37;;;;;;;;;;5075746;28;20035;-71
2023/09/04 14:19:21;;;;;;;4.73;2.50;;;;;;;;;;5077996;28;20259;-72
2023/09/04 14:21:46;;;;;;;3.90;2.28;;;;;;;;;;5079316;28;20290;-72
2023/09/04 14:24:16;;;;;;;3.33;2.20;;;;;;;;;;5077763;28;20031;-71